Terminal Aerodrome Forecast
Issued by NWS

Home | Current Version | Previous Version | Graphics & Text | Print | Product List | Glossary On
Versions: 1 2 3 4 5 6 7 8 9 10 11 12 13 14 15 16 17 18 19 20
193
FTUS43 KFGF 221731
TAFBJI
TAF
KBJI 221731Z 2218/2318 15015KT P6SM BKN080
     FM230100 16011KT P6SM BKN070
     FM231500 16011KT P6SM BKN025=

USA.gov is the U.S. government's official web portal to all federal, state and local government web resources and services.